Aviation Digital Data Service (ADDS)

Output produced by METARs form (0427 UTC 26 May 2018)
found at http://www.aviationweather.gov/adds/metars/
 
GVAC 260400Z 04011KT 9999 BKN014 21/15 Q1015 NOSIG
TAF GVAC 252300Z 2600/2706 04015KT 9999 BKN014
       
TAF GVBA 252300Z 2600/2706 02018KT 9999 BKN015
       
GVSV 260400Z 07017KT 9999 FEW022 21/16 Q1016 NOSIG
TAF GVSV 252300Z 2600/2706 06020KT 9999 SCT022 
     TEMPO 2612/2618 06022G32KT